イルクーツク の空港の天気 - METARとTAF

イルクーツク国際空港 ( UIII / IKT ) - ロシア イルクーツク
飛行場実況気象(Metar)
観測時間05/25 10:30 IRKT (05/25 02:30 UTC)
風向・風速西 7m/s
視程10km以上
天気現象
全天を覆う雲 雲底高度 270m
気温5℃
湿度93%
気圧1011hPa
METARUIII 250230Z 27007MPS 9999 OVC009CB 05/04 Q1011 R30/290150 NOSIG RMK QBB290 QFE713/0951
過去の天気等 Google飛行場航空写真 Wunderground天気予報

過去48時間のMETAR

飛行場予報(TAF)
発表時間: 5/25 10:00 IRKT (5/25 02:00 UTC)
予報対象時間: 25日11時 IRKT ~ 26日11時 IRKT
風向・風速西北西 8m/s
視程5,000m
天気現象弱いしゅう雨
全天を覆う積乱雲 雲底高度 180m
25日11時 IRKT ~ 26日8時 IRKT に一時的に
風向・風速北西 10m/s 瞬間風速 15m/s
視程1,300m
天気現象しゅう雪雨
全天を覆う積乱雲 雲底高度 120m
TAF UIII 250200Z 2503/2603 30008MPS 5000 -SHRA OVC006CB
TEMPO 2503/2524 32010G15MPS 1300 SHSNRA OVC004CB